createdAt,value
2022-12-01T00:01:11.075Z,102277.72
2022-12-01T00:03:37.756Z,102266.34
2022-12-01T00:06:22.876Z,102278.75
2022-12-01T00:09:09.568Z,102269.09
2022-12-01T00:11:37.509Z,102264.81
2022-12-01T00:14:04.810Z,102273.69
2022-12-01T00:16:31.313Z,102267.84
2022-12-01T00:18:58.149Z,102270.28
2022-12-01T00:21:25.325Z,102266.03
2022-12-01T00:23:54.873Z,102268.16
2022-12-01T00:26:22.034Z,102267.06
2022-12-01T00:28:53.248Z,102262.34
2022-12-01T00:31:19.789Z,102271.72
2022-12-01T00:33:46.283Z,102274.25
2022-12-01T00:36:12.485Z,102272.81
2022-12-01T00:38:38.922Z,102269.66
2022-12-01T00:41:05.286Z,102269.56
2022-12-01T00:43:31.922Z,102268.22
2022-12-01T00:45:58.278Z,102266.03
2022-12-01T00:48:25.025Z,102264.72
2022-12-01T00:50:52.760Z,102264.31
2022-12-01T00:53:19.212Z,102267.34
2022-12-01T00:55:45.322Z,102261.06
2022-12-01T00:58:12.229Z,102245.66
2022-12-01T01:00:38.549Z,102253.06
2022-12-01T01:03:06.879Z,102251.78
2022-12-01T01:05:41.100Z,102247.22
2022-12-01T01:08:14.298Z,102250.06
2022-12-01T01:10:42.553Z,102248.13
2022-12-01T01:13:10.722Z,102245.38
2022-12-01T01:15:37.703Z,102245.59
2022-12-01T01:18:05.586Z,102251.47
2022-12-01T01:20:32.690Z,102243.19
2022-12-01T01:22:59.022Z,102246.03
2022-12-01T01:25:25.110Z,102244.56
2022-12-01T01:27:51.473Z,102237.56
2022-12-01T01:30:19.710Z,102240.25
2022-12-01T01:32:46.269Z,102233.66
2022-12-01T01:35:12.345Z,102237.25
2022-12-01T01:37:39.227Z,102237.97
2022-12-01T01:40:06.267Z,102232.19
2022-12-01T01:42:32.786Z,102233.94
2022-12-01T01:44:58.866Z,102242.56
2022-12-01T01:47:38.520Z,102238.06
2022-12-01T01:50:09.352Z,102234.88
2022-12-01T01:52:44.616Z,102237.44
2022-12-01T01:55:12.117Z,102229.66
2022-12-01T01:57:39.477Z,102229.66
2022-12-01T02:00:13.181Z,102229.31
2022-12-01T02:02:44.402Z,102237.03
2022-12-01T02:05:20.219Z,102234.91
2022-12-01T02:07:47.930Z,102234.97
2022-12-01T02:10:21.553Z,102244.41
2022-12-01T02:13:15.952Z,102227.31
2022-12-01T02:16:06.094Z,102237.56
2022-12-01T02:18:51.504Z,102241.84
2022-12-01T02:21:39.201Z,102238.19
2022-12-01T02:24:26.843Z,102232.03
2022-12-01T02:27:31.487Z,102239.16
2022-12-01T02:30:03.911Z,102245.63
2022-12-01T02:32:53.018Z,102243.34
2022-12-01T02:35:36.687Z,102243.53
2022-12-01T02:38:27.826Z,102244.06
2022-12-01T02:41:15.908Z,102250.06
2022-12-01T02:44:04.532Z,102239.00
2022-12-01T02:46:35.639Z,102237.41
2022-12-01T02:49:07.441Z,102236.22
2022-12-01T02:51:37.381Z,102238.13
2022-12-01T02:54:05.231Z,102239.00
2022-12-01T02:56:31.798Z,102228.22
2022-12-01T02:58:57.915Z,102239.44
2022-12-01T03:01:41.655Z,102240.00
2022-12-01T03:04:16.582Z,102238.66
2022-12-01T03:06:59.385Z,102235.63
2022-12-01T03:09:33.358Z,102234.66
2022-12-01T03:12:14.941Z,102231.09
2022-12-01T03:14:44.414Z,102230.25
2022-12-01T03:17:18.987Z,102226.84
2022-12-01T03:19:52.825Z,102228.50
2022-12-01T03:22:31.272Z,102227.16
2022-12-01T03:25:00.556Z,102223.44
2022-12-01T03:27:32.833Z,102228.78
2022-12-01T03:30:01.318Z,102222.06
2022-12-01T03:32:37.921Z,102229.97
2022-12-01T03:35:08.326Z,102227.44
2022-12-01T03:37:40.810Z,102224.75
2022-12-01T03:40:11.421Z,102228.22
2022-12-01T03:42:44.729Z,102228.22
2022-12-01T03:45:35.850Z,102229.44
2022-12-01T03:48:02.671Z,102228.31
2022-12-01T03:50:48.796Z,102222.44
2022-12-01T03:53:24.108Z,102225.06
2022-12-01T03:55:55.787Z,102221.28
2022-12-01T03:58:35.020Z,102207.28
2022-12-01T04:01:03.085Z,102209.25
2022-12-01T04:03:29.712Z,102209.19
2022-12-01T04:05:57.347Z,102214.66
2022-12-01T04:08:24.507Z,102211.34
2022-12-01T04:10:50.955Z,102206.19
2022-12-01T04:13:23.715Z,102213.56
2022-12-01T04:15:54.393Z,102216.25
2022-12-01T04:18:21.292Z,102207.31
2022-12-01T04:20:49.094Z,102221.41
2022-12-01T04:23:35.520Z,102200.00
2022-12-01T04:26:04.224Z,102202.41
2022-12-01T04:28:31.001Z,102206.94
2022-12-01T04:30:57.141Z,102207.09
2022-12-01T04:33:23.550Z,102205.84
2022-12-01T04:35:57.997Z,102211.06
2022-12-01T04:38:30.071Z,102206.84
2022-12-01T04:40:57.109Z,102212.81
2022-12-01T04:43:23.474Z,102218.13
2022-12-01T04:45:49.796Z,102214.81
2022-12-01T04:48:16.293Z,102211.13
2022-12-01T04:50:42.602Z,102218.41
2022-12-01T04:53:09.021Z,102219.81
2022-12-01T04:55:38.615Z,102206.56
2022-12-01T04:58:05.637Z,102217.84
2022-12-01T05:00:32.764Z,102216.31
2022-12-01T05:03:00.029Z,102216.41
2022-12-01T05:05:26.388Z,102218.63
2022-12-01T05:07:52.982Z,102224.72
2022-12-01T05:10:19.122Z,102215.91
2022-12-01T05:12:45.596Z,102219.69
2022-12-01T05:15:12.467Z,102209.50
2022-12-01T05:17:39.202Z,102217.72
2022-12-01T05:20:25.599Z,102218.16
2022-12-01T05:23:06.466Z,102217.03
2022-12-01T05:25:33.340Z,102218.28
2022-12-01T05:28:00.099Z,102214.13
2022-12-01T05:30:28.683Z,102209.47
2022-12-01T05:32:55.878Z,102217.03
2022-12-01T05:35:22.023Z,102215.72
2022-12-01T05:37:48.365Z,102213.91
2022-12-01T05:40:14.541Z,102215.06
2022-12-01T05:42:40.949Z,102224.47
2022-12-01T05:45:07.459Z,102214.13
2022-12-01T05:47:33.837Z,102221.78
2022-12-01T05:50:05.246Z,102217.69
2022-12-01T05:52:34.292Z,102215.00
2022-12-01T05:55:01.385Z,102219.03
2022-12-01T05:57:27.912Z,102213.91
2022-12-01T05:59:54.190Z,102219.03
2022-12-01T06:02:21.100Z,102219.03
2022-12-01T06:04:47.424Z,102227.84
2022-12-01T06:07:13.812Z,102222.72
2022-12-01T06:09:39.960Z,102219.50
2022-12-01T06:12:06.487Z,102222.97
2022-12-01T06:14:32.584Z,102224.66
2022-12-01T06:16:59.096Z,102232.88
2022-12-01T06:19:25.263Z,102228.25
2022-12-01T06:21:51.765Z,102237.38
2022-12-01T06:24:17.964Z,102239.38
2022-12-01T06:26:44.354Z,102239.06
2022-12-01T06:29:10.545Z,102244.31
2022-12-01T06:31:37.057Z,102237.50
2022-12-01T06:34:03.282Z,102245.16
2022-12-01T06:36:29.736Z,102242.16
2022-12-01T06:38:55.811Z,102251.69
2022-12-01T06:41:22.251Z,102247.91
2022-12-01T06:43:48.475Z,102250.28
2022-12-01T06:46:15.076Z,102249.25
2022-12-01T06:48:41.336Z,102256.03
2022-12-01T06:51:09.163Z,102259.47
2022-12-01T06:53:37.052Z,102253.75
2022-12-01T06:56:04.872Z,102265.34
2022-12-01T06:58:32.028Z,102261.19
2022-12-01T07:00:59.580Z,102262.94
2022-12-01T07:03:26.227Z,102263.31
2022-12-01T07:05:59.679Z,102265.94
2022-12-01T07:08:27.739Z,102261.97
2022-12-01T07:11:05.365Z,102265.44
2022-12-01T07:13:33.745Z,102253.97
2022-12-01T07:16:05.156Z,102262.19
2022-12-01T07:18:32.457Z,102265.81
2022-12-01T07:21:00.386Z,102260.59
2022-12-01T07:23:26.557Z,102258.56
2022-12-01T07:26:10.069Z,102272.81
2022-12-01T07:28:36.103Z,102269.72
2022-12-01T07:31:06.912Z,102277.84
2022-12-01T07:33:33.450Z,102272.44
2022-12-01T07:36:00.827Z,102274.50
2022-12-01T07:38:29.040Z,102273.56
2022-12-01T07:41:01.586Z,102277.03
2022-12-01T07:43:29.359Z,102272.06
2022-12-01T07:45:55.874Z,102273.91
2022-12-01T07:48:22.047Z,102269.22
2022-12-01T07:50:48.466Z,102269.75
2022-12-01T07:53:14.726Z,102273.88
2022-12-01T07:55:47.376Z,102275.53
2022-12-01T07:58:13.488Z,102270.19
2022-12-01T08:00:39.830Z,102274.22
2022-12-01T08:03:06.033Z,102282.13
2022-12-01T08:05:32.606Z,102279.44
2022-12-01T08:07:59.089Z,102287.34
2022-12-01T08:10:25.833Z,102287.88
2022-12-01T08:12:52.097Z,102287.78
2022-12-01T08:15:18.556Z,102280.16
2022-12-01T08:17:44.734Z,102286.75
2022-12-01T08:20:11.793Z,102285.03
2022-12-01T08:22:38.262Z,102280.84
2022-12-01T08:25:06.203Z,102275.91
2022-12-01T08:27:34.501Z,102278.16
2022-12-01T08:30:01.733Z,102276.00
2022-12-01T08:32:29.690Z,102274.59
2022-12-01T08:34:56.374Z,102284.06
2022-12-01T08:37:22.732Z,102283.72
2022-12-01T08:39:49.791Z,102289.25
2022-12-01T08:42:16.472Z,102279.59
2022-12-01T08:44:43.041Z,102279.56
2022-12-01T08:47:12.036Z,102279.75
2022-12-01T08:49:41.098Z,102270.91
2022-12-01T08:52:07.507Z,102268.06
2022-12-01T08:54:34.151Z,102277.84
2022-12-01T08:57:00.380Z,102266.94
2022-12-01T08:59:27.111Z,102280.97
2022-12-01T09:01:53.478Z,102275.13
2022-12-01T09:04:24.038Z,102280.34
2022-12-01T09:06:51.938Z,102277.53
2022-12-01T09:09:21.764Z,102266.78
2022-12-01T09:11:48.331Z,102266.47
2022-12-01T09:14:17.281Z,102273.19
2022-12-01T09:16:45.640Z,102270.31
2022-12-01T09:19:13.544Z,102264.75
2022-12-01T09:21:42.134Z,102269.66
2022-12-01T09:24:11.354Z,102272.50
2022-12-01T09:26:37.531Z,102258.81
2022-12-01T09:29:06.808Z,102261.09
2022-12-01T09:31:33.646Z,102271.94
2022-12-01T09:34:03.378Z,102260.16
2022-12-01T09:36:31.208Z,102262.28
2022-12-01T09:38:58.170Z,102257.38
2022-12-01T09:41:37.204Z,102246.53
2022-12-01T09:44:19.923Z,102251.50
2022-12-01T09:46:57.136Z,102253.91
2022-12-01T09:49:35.242Z,102250.34
2022-12-01T09:52:01.404Z,102256.03
2022-12-01T09:54:28.571Z,102246.47
2022-12-01T09:56:56.393Z,102250.28
2022-12-01T09:59:26.341Z,102251.53
2022-12-01T10:02:00.388Z,102244.19
2022-12-01T10:04:34.961Z,102243.97
2022-12-01T10:07:19.503Z,102243.22
2022-12-01T10:09:58.667Z,102242.47
2022-12-01T10:12:30.372Z,102233.63
2022-12-01T10:15:05.871Z,102239.34
2022-12-01T10:17:56.461Z,102240.84
2022-12-01T10:20:48.984Z,102216.88
2022-12-01T10:23:34.251Z,102227.53
2022-12-01T10:26:13.863Z,102227.97
2022-12-01T10:28:42.959Z,102223.63
2022-12-01T10:31:19.098Z,102227.97
2022-12-01T10:33:58.433Z,102224.78
2022-12-01T10:36:27.618Z,102221.72
2022-12-01T10:38:54.131Z,102218.22
2022-12-01T10:41:23.757Z,102214.19
2022-12-01T10:43:51.886Z,102209.84
2022-12-01T10:46:24.086Z,102215.28
2022-12-01T10:48:55.769Z,102220.44
2022-12-01T10:51:24.004Z,102217.59
2022-12-01T10:53:57.572Z,102221.78
2022-12-01T10:56:24.290Z,102209.13
2022-12-01T10:58:56.917Z,102213.47
2022-12-01T11:01:31.329Z,102206.59
2022-12-01T11:04:05.295Z,102210.31
2022-12-01T11:06:32.445Z,102205.97
2022-12-01T11:09:06.118Z,102212.09
2022-12-01T11:11:32.491Z,102214.09
2022-12-01T11:14:01.995Z,102213.56
2022-12-01T11:16:54.598Z,102210.63
2022-12-01T11:19:26.995Z,102215.66
2022-12-01T11:21:57.333Z,102215.22
2022-12-01T11:24:42.066Z,102213.31
2022-12-01T11:27:16.552Z,102206.03
2022-12-01T11:29:43.186Z,102215.22
2022-12-01T11:32:30.812Z,102214.97
2022-12-01T11:35:12.642Z,102212.53
2022-12-01T11:38:13.113Z,102210.38
2022-12-01T11:40:50.732Z,102205.50
2022-12-01T11:43:35.717Z,102205.69
2022-12-01T11:46:05.018Z,102202.44
2022-12-01T11:48:36.288Z,102191.63
2022-12-01T11:51:04.494Z,102198.72
2022-12-01T11:53:38.576Z,102199.75
2022-12-01T11:56:24.120Z,102194.41
2022-12-01T11:59:03.656Z,102192.00
2022-12-01T12:01:38.991Z,102183.13
2022-12-01T12:04:26.680Z,102191.63
2022-12-01T12:07:16.170Z,102193.16
2022-12-01T12:10:01.343Z,102199.63
2022-12-01T12:12:27.428Z,102193.47
2022-12-01T12:15:31.022Z,102189.41
2022-12-01T12:18:13.998Z,102187.47
2022-12-01T12:20:40.619Z,102196.56
2022-12-01T12:23:40.605Z,102191.19
2022-12-01T12:26:51.868Z,102193.78
2022-12-01T12:29:52.154Z,102189.44
2022-12-01T12:32:34.079Z,102194.50
2022-12-01T12:35:00.223Z,102190.97
2022-12-01T12:37:51.417Z,102187.97
2022-12-01T12:40:35.798Z,102186.63
2022-12-01T12:43:09.117Z,102196.06
2022-12-01T12:46:03.068Z,102192.13
2022-12-01T12:49:03.905Z,102190.78
2022-12-01T12:51:37.545Z,102193.97
2022-12-01T12:54:29.242Z,102179.63
2022-12-01T12:57:02.560Z,102183.72
2022-12-01T12:59:38.731Z,102189.53
2022-12-01T13:02:22.361Z,102192.50
2022-12-01T13:04:52.182Z,102183.56
2022-12-01T13:07:44.274Z,102190.16
2022-12-01T13:10:29.440Z,102183.63
2022-12-01T13:13:36.992Z,102189.88
2022-12-01T13:16:09.926Z,102188.66
2022-12-01T13:18:49.045Z,102181.47
2022-12-01T13:21:18.642Z,102179.94
2022-12-01T13:23:48.964Z,102179.75
2022-12-01T13:26:19.350Z,102178.34
2022-12-01T13:28:50.672Z,102179.22
2022-12-01T13:31:19.187Z,102177.91
2022-12-01T13:34:04.112Z,102174.88
2022-12-01T13:36:48.395Z,102175.56
2022-12-01T13:39:36.576Z,102176.59
2022-12-01T13:42:07.623Z,102175.25
2022-12-01T13:44:36.775Z,102171.69
2022-12-01T13:47:09.281Z,102175.59
2022-12-01T13:49:39.929Z,102172.34
2022-12-01T13:52:21.861Z,102176.78
2022-12-01T13:55:09.467Z,102181.31
2022-12-01T13:57:44.172Z,102183.66
2022-12-01T14:00:23.377Z,102185.38
2022-12-01T14:03:32.703Z,102186.25
2022-12-01T14:06:20.281Z,102180.19
2022-12-01T14:08:52.429Z,102173.91
2022-12-01T14:11:39.165Z,102186.78
2022-12-01T14:14:08.771Z,102184.50
2022-12-01T14:16:47.471Z,102183.28
2022-12-01T14:19:43.145Z,102189.53
2022-12-01T14:22:38.511Z,102180.44
2022-12-01T14:25:20.121Z,102191.97
2022-12-01T14:27:52.614Z,102185.91
2022-12-01T14:30:41.507Z,102188.75
2022-12-01T14:33:39.038Z,102188.34
2022-12-01T14:36:24.053Z,102182.44
2022-12-01T14:38:57.823Z,102180.00
2022-12-01T14:41:27.499Z,102179.75
2022-12-01T14:44:04.060Z,102175.81
2022-12-01T14:46:55.789Z,102182.25
2022-12-01T14:49:31.587Z,102179.56
2022-12-01T14:52:06.709Z,102177.06
2022-12-01T14:54:42.777Z,102174.63
2022-12-01T14:57:16.549Z,102183.28
2022-12-01T14:59:44.122Z,102168.97
2022-12-01T15:02:13.029Z,102179.13
2022-12-01T15:05:12.108Z,102172.09
2022-12-01T15:07:47.058Z,102175.22
2022-12-01T15:10:22.479Z,102176.84
2022-12-01T15:12:50.567Z,102172.75
2022-12-01T15:15:24.504Z,102168.94
2022-12-01T15:17:54.776Z,102171.28
2022-12-01T15:20:38.584Z,102170.72
2022-12-01T15:23:11.835Z,102173.91
2022-12-01T15:25:42.247Z,102174.97
2022-12-01T15:28:18.088Z,102163.41
2022-12-01T15:30:54.617Z,102157.59
2022-12-01T15:33:35.384Z,102165.31
2022-12-01T15:36:04.199Z,102168.34
2022-12-01T15:38:38.346Z,102170.09
2022-12-01T15:41:28.455Z,102172.72
2022-12-01T15:43:56.774Z,102173.22
2022-12-01T15:46:31.468Z,102168.91
2022-12-01T15:49:28.937Z,102174.28
2022-12-01T15:52:08.622Z,102168.03
2022-12-01T15:54:37.058Z,102167.25
2022-12-01T15:57:06.295Z,102167.50
2022-12-01T15:59:38.588Z,102166.47
2022-12-01T16:02:27.056Z,102170.44
2022-12-01T16:05:08.737Z,102167.91
2022-12-01T16:08:10.940Z,102174.50
2022-12-01T16:10:29.822Z,102179.34
2022-12-01T16:13:33.546Z,102165.66
2022-12-01T16:16:00.388Z,102180.13
2022-12-01T16:18:33.718Z,102176.06
2022-12-01T16:21:04.528Z,102176.56
2022-12-01T16:23:32.240Z,102184.28
2022-12-01T16:26:01.917Z,102181.34
2022-12-01T16:28:36.660Z,102182.28
2022-12-01T16:31:05.613Z,102183.34
2022-12-01T16:33:36.880Z,102172.69
2022-12-01T16:36:03.723Z,102179.97
2022-12-01T16:38:30.672Z,102183.94
2022-12-01T16:41:14.210Z,102184.66
2022-12-01T16:43:50.212Z,102177.88
2022-12-01T16:46:30.916Z,102180.84
2022-12-01T16:48:58.458Z,102177.97
2022-12-01T16:51:35.485Z,102183.78
2022-12-01T16:54:09.568Z,102175.50
2022-12-01T16:56:36.066Z,102179.84
2022-12-01T16:59:02.383Z,102174.00
2022-12-01T17:01:29.136Z,102181.19
2022-12-01T17:03:56.063Z,102177.16
2022-12-01T17:06:22.692Z,102176.84
2022-12-01T17:08:49.238Z,102172.72
2022-12-01T17:11:15.689Z,102180.41
2022-12-01T17:13:41.977Z,102183.13
2022-12-01T17:16:13.837Z,102185.56
2022-12-01T17:18:43.197Z,102180.88
2022-12-01T17:21:10.916Z,102179.13
2022-12-01T17:23:38.210Z,102180.53
2022-12-01T17:26:10.749Z,102186.56
2022-12-01T17:28:38.159Z,102185.97
2022-12-01T17:31:06.087Z,102188.75
2022-12-01T17:33:33.243Z,102179.56
2022-12-01T17:36:10.011Z,102181.47
2022-12-01T17:38:38.594Z,102178.78
2022-12-01T17:41:08.309Z,102185.22
2022-12-01T17:43:36.002Z,102186.59
2022-12-01T17:46:04.973Z,102186.56
2022-12-01T17:48:49.823Z,102194.94
2022-12-01T17:51:19.474Z,102190.78
2022-12-01T17:53:47.313Z,102180.34
2022-12-01T17:56:15.603Z,102168.53
2022-12-01T17:58:42.531Z,102170.81
2022-12-01T18:01:18.330Z,102172.44
2022-12-01T18:03:47.804Z,102175.63
2022-12-01T18:06:15.852Z,102176.25
2022-12-01T18:08:42.835Z,102180.34
2022-12-01T18:11:13.777Z,102185.78
2022-12-01T18:13:43.386Z,102191.19
2022-12-01T18:16:22.147Z,102191.38
2022-12-01T18:18:49.485Z,102184.53
2022-12-01T18:21:18.087Z,102187.97
2022-12-01T18:23:59.335Z,102181.38
2022-12-01T18:26:27.422Z,102185.88
2022-12-01T18:28:55.824Z,102180.84
2022-12-01T18:31:26.668Z,102179.72
2022-12-01T18:33:53.309Z,102185.09
2022-12-01T18:36:22.859Z,102190.41
2022-12-01T18:38:51.103Z,102183.09
2022-12-01T18:41:19.435Z,102180.84
2022-12-01T18:43:46.496Z,102185.88
2022-12-01T18:46:15.925Z,102183.09
2022-12-01T18:48:47.600Z,102177.53
2022-12-01T18:51:14.996Z,102177.47
2022-12-01T18:53:42.006Z,102176.31
2022-12-01T18:56:11.714Z,102174.06
2022-12-01T18:58:39.516Z,102170.59
2022-12-01T19:01:23.819Z,102174.38
2022-12-01T19:03:50.556Z,102182.03
2022-12-01T19:06:17.670Z,102174.59
2022-12-01T19:08:46.562Z,102174.59
2022-12-01T19:11:13.713Z,102175.78
2022-12-01T19:13:40.302Z,102167.28
2022-12-01T19:16:09.844Z,102156.97
2022-12-01T19:18:37.491Z,102163.81
2022-12-01T19:21:06.133Z,102150.41
2022-12-01T19:23:33.615Z,102161.16
2022-12-01T19:26:06.279Z,102167.50
2022-12-01T19:28:35.084Z,102169.69
2022-12-01T19:31:10.489Z,102166.28
2022-12-01T19:33:37.264Z,102155.72
2022-12-01T19:36:09.238Z,102171.50
2022-12-01T19:38:35.455Z,102169.84
2022-12-01T19:41:02.855Z,102164.38
2022-12-01T19:43:29.267Z,102170.19
2022-12-01T19:45:55.893Z,102174.38
2022-12-01T19:48:22.416Z,102177.72
2022-12-01T19:50:49.615Z,102178.28
2022-12-01T19:53:15.826Z,102172.53
2022-12-01T19:55:42.379Z,102167.25
2022-12-01T19:58:08.566Z,102163.31
2022-12-01T20:00:35.578Z,102162.66
2022-12-01T20:03:01.888Z,102169.16
2022-12-01T20:05:28.732Z,102170.84
2022-12-01T20:07:55.058Z,102169.00
2022-12-01T20:10:21.778Z,102168.53
2022-12-01T20:12:49.339Z,102168.00
2022-12-01T20:15:16.150Z,102172.28
2022-12-01T20:17:43.035Z,102173.66
2022-12-01T20:20:10.928Z,102167.66
2022-12-01T20:22:38.060Z,102165.22
2022-12-01T20:25:06.017Z,102162.53
2022-12-01T20:27:32.365Z,102162.56
2022-12-01T20:29:58.910Z,102153.38
2022-12-01T20:32:25.245Z,102159.13
2022-12-01T20:34:52.097Z,102164.59
2022-12-01T20:37:18.893Z,102151.81
2022-12-01T20:39:46.752Z,102164.69
2022-12-01T20:42:12.984Z,102152.84
2022-12-01T20:44:39.803Z,102161.22
2022-12-01T20:47:06.099Z,102157.97
2022-12-01T20:49:33.126Z,102157.16
2022-12-01T20:51:59.335Z,102155.34
2022-12-01T20:54:28.816Z,102149.03
2022-12-01T20:56:56.132Z,102153.38
2022-12-01T20:59:22.794Z,102149.47
2022-12-01T21:01:49.214Z,102148.44
2022-12-01T21:04:16.162Z,102154.47
2022-12-01T21:06:42.554Z,102153.44
2022-12-01T21:09:12.452Z,102155.88
2022-12-01T21:12:06.320Z,102155.53
2022-12-01T21:14:53.749Z,102154.09
2022-12-01T21:17:43.622Z,102151.88
2022-12-01T21:20:21.282Z,102152.69
2022-12-01T21:22:49.333Z,102158.34
2022-12-01T21:25:22.145Z,102154.34
2022-12-01T21:27:49.032Z,102159.34
2022-12-01T21:30:25.663Z,102164.94
2022-12-01T21:32:53.221Z,102157.16
2022-12-01T21:35:23.100Z,102150.91
2022-12-01T21:37:53.776Z,102156.81
2022-12-01T21:40:23.557Z,102152.34
2022-12-01T21:42:50.850Z,102152.69
2022-12-01T21:45:31.555Z,102159.72
2022-12-01T21:48:08.162Z,102159.69
2022-12-01T21:50:35.015Z,102149.44
2022-12-01T21:53:01.368Z,102150.81
2022-12-01T21:55:33.010Z,102149.63
2022-12-01T21:57:59.361Z,102139.38
2022-12-01T22:00:32.686Z,102149.47
2022-12-01T22:03:07.875Z,102136.69
2022-12-01T22:06:07.109Z,102143.28
2022-12-01T22:08:39.382Z,102136.88
2022-12-01T22:11:28.335Z,102125.41
2022-12-01T22:14:00.807Z,102135.22
2022-12-01T22:16:32.933Z,102134.63
2022-12-01T22:19:01.844Z,102136.59
2022-12-01T22:21:38.722Z,102139.34
2022-12-01T22:24:07.677Z,102137.59
2022-12-01T22:26:40.653Z,102128.47
2022-12-01T22:29:25.643Z,102131.00
2022-12-01T22:32:19.066Z,102132.50
2022-12-01T22:34:50.283Z,102126.19
2022-12-01T22:37:28.000Z,102123.75
2022-12-01T22:39:55.903Z,102126.50
2022-12-01T22:42:33.215Z,102136.59
2022-12-01T22:45:18.010Z,102134.13
2022-12-01T22:47:44.652Z,102126.72
2022-12-01T22:50:40.042Z,102123.69
2022-12-01T22:53:15.554Z,102126.56
2022-12-01T22:55:42.020Z,102125.34
2022-12-01T22:58:21.730Z,102118.56
2022-12-01T23:00:47.817Z,102125.66
2022-12-01T23:03:15.536Z,102121.91
2022-12-01T23:05:41.908Z,102126.13
2022-12-01T23:08:12.497Z,102114.75
2022-12-01T23:10:40.133Z,102112.06
2022-12-01T23:13:23.851Z,102117.88
2022-12-01T23:15:52.826Z,102112.31
2022-12-01T23:18:19.241Z,102118.72
2022-12-01T23:20:50.768Z,102116.84
2022-12-01T23:23:19.574Z,102117.38
2022-12-01T23:25:48.550Z,102112.16
2022-12-01T23:28:15.482Z,102108.91
2022-12-01T23:30:43.590Z,102114.28
2022-12-01T23:33:18.386Z,102114.66
2022-12-01T23:35:57.059Z,102107.97
2022-12-01T23:38:28.830Z,102107.88
2022-12-01T23:40:58.686Z,102101.13
2022-12-01T23:43:29.152Z,102115.47
2022-12-01T23:46:19.816Z,102116.22
2022-12-01T23:48:46.134Z,102114.94
2022-12-01T23:51:17.772Z,102117.41
2022-12-01T23:53:45.335Z,102110.03
2022-12-01T23:56:16.251Z,102104.88
2022-12-01T23:58:43.449Z,102109.81
